Terminal Aerodrome Forecast
Issued by NWS Duluth, MN

Home | Current Version | Previous Version | Text Only | Print | Product List | Glossary On
Versions: 1 2 3 4 5 6 7 8 9 10 11 12 13 14 15 16 17 18 19 20 21 22 23
000
FTUS43 KDLH 171200 AAA
TAFINL
TAF AMD
KINL 171217Z 1712/1812 02007KT P6SM VCSH SCT010 OVC080
      TEMPO 1712/1716 04010KT -RA BKN006
     FM171600 04008KT P6SM SCT015 BKN050
     FM172000 06008KT P6SM SCT040
     FM180000 08005KT P6SM FEW040=

USA.gov is the U.S. government's official web portal to all federal, state and local government web resources and services.